Time;durP1;ratioP1;P1;durP2;ratioP2;P2;SDS_P1;SDS_P2;PMS_P1;PMS_P2;Temp;Humidity;BMP_temperature;BMP_pressure;BME280_temperature;BME280_humidity;BME280_pressure;Samples;Min_cycle;Max_cycle;Signal;HPM_P1;HPM_P2
2023/06/14 00:01:38;;;;;;;8.20;2.50;;;16.60;79.60;;;;;;5108457;27;20496;-74
2023/06/14 00:04:05;;;;;;;5.20;2.10;;;16.50;80.10;;;;;;5116225;28;20456;-74
2023/06/14 00:06:31;;;;;;;4.28;2.33;;;16.50;80.50;;;;;;5109520;28;20066;-75
2023/06/14 00:08:57;;;;;;;7.28;2.53;;;16.50;80.70;;;;;;5110142;28;20013;-76
2023/06/14 00:11:22;;;;;;;4.75;2.50;;;16.50;81.10;;;;;;5111887;27;20140;-75
2023/06/14 00:13:48;;;;;;;6.05;2.50;;;16.40;81.80;;;;;;5119106;27;20077;-74
2023/06/14 00:16:13;;;;;;;6.43;2.30;;;16.40;81.60;;;;;;5104720;27;20036;-75
2023/06/14 00:18:39;;;;;;;5.82;2.58;;;16.30;82.30;;;;;;5085277;28;20040;-76
2023/06/14 00:21:05;;;;;;;4.80;2.40;;;16.30;82.40;;;;;;5099220;27;20036;-75
2023/06/14 00:23:30;;;;;;;6.47;2.30;;;16.20;83.20;;;;;;5106088;28;20122;-74
2023/06/14 00:25:56;;;;;;;6.07;2.50;;;16.10;83.30;;;;;;5104776;28;20566;-74
2023/06/14 00:28:22;;;;;;;6.18;2.20;;;16.10;84.00;;;;;;5120648;27;20082;-74
2023/06/14 00:30:48;;;;;;;11.27;2.60;;;16.10;84.00;;;;;;5117046;27;20040;-75
2023/06/14 00:33:13;;;;;;;7.97;2.30;;;16.00;84.30;;;;;;5092683;28;20043;-75
2023/06/14 00:35:39;;;;;;;4.57;2.20;;;16.00;84.70;;;;;;5124812;27;20485;-75
2023/06/14 00:38:05;;;;;;;7.32;2.28;;;15.90;85.10;;;;;;5111423;28;20079;-75
2023/06/14 00:40:31;;;;;;;4.57;2.00;;;15.90;85.50;;;;;;5116747;28;20070;-76
2023/06/14 00:42:56;;;;;;;7.05;2.40;;;15.90;85.70;;;;;;5108916;28;20440;-74
2023/06/14 00:45:22;;;;;;;9.13;2.40;;;15.80;85.60;;;;;;5084084;27;20047;-75
2023/06/14 00:47:50;;;;;;;6.68;2.22;;;15.80;86.20;;;;;;5127078;27;20095;-75
2023/06/14 00:50:16;;;;;;;5.18;2.50;;;15.80;86.40;;;;;;5111666;28;20039;-75
2023/06/14 00:52:42;;;;;;;6.32;2.47;;;15.70;86.80;;;;;;5081249;27;20054;-75
2023/06/14 00:55:08;;;;;;;8.45;2.33;;;15.70;86.80;;;;;;5109381;27;20185;-74
2023/06/14 00:57:37;;;;;;;7.15;1.80;;;15.70;87.00;;;;;;5131550;27;20031;-74
2023/06/14 01:00:08;;;;;;;4.78;1.95;;;15.70;87.10;;;;;;5103927;27;20039;-74
2023/06/14 01:02:34;;;;;;;3.35;2.03;;;15.60;87.20;;;;;;5114445;27;20118;-75
2023/06/14 01:05:01;;;;;;;4.32;2.17;;;15.60;87.80;;;;;;5110269;27;20085;-75
2023/06/14 01:07:49;;;;;;;4.20;2.20;;;15.60;88.00;;;;;;5111391;27;20044;-74
2023/06/14 01:10:51;;;;;;;8.33;1.80;;;15.60;88.80;;;;;;5103699;28;20401;-74
2023/06/14 01:13:38;;;;;;;5.43;1.80;;;15.50;88.50;;;;;;5106297;27;20301;-75
2023/06/14 01:16:06;;;;;;;4.43;2.17;;;15.50;88.90;;;;;;5111602;27;20035;-75
2023/06/14 01:18:33;;;;;;;3.88;2.00;;;15.40;88.90;;;;;;5099428;28;20047;-75
2023/06/14 01:20:59;;;;;;;2.95;1.95;;;15.40;89.00;;;;;;5109904;27;20130;-75
2023/06/14 01:23:32;;;;;;;3.05;1.88;;;15.40;89.20;;;;;;5084228;28;20487;-76
2023/06/14 01:25:57;;;;;;;7.43;2.20;;;15.30;90.00;;;;;;5086565;28;20058;-75
2023/06/14 01:28:24;;;;;;;4.53;2.15;;;15.30;90.00;;;;;;5105727;28;20048;-75
2023/06/14 01:30:53;;;;;;;5.07;2.17;;;15.30;90.00;;;;;;5098485;27;20063;-73
2023/06/14 01:33:21;;;;;;;6.05;2.08;;;15.30;90.10;;;;;;5115883;27;20446;-76
2023/06/14 01:35:49;;;;;;;5.75;2.20;;;15.30;90.20;;;;;;5121549;27;20142;-75
2023/06/14 01:38:17;;;;;;;4.38;2.00;;;15.20;90.50;;;;;;5103710;27;20532;-75
2023/06/14 01:40:46;;;;;;;5.82;2.70;;;15.20;90.70;;;;;;5104817;27;20440;-75
2023/06/14 01:43:14;;;;;;;6.40;2.50;;;15.10;90.90;;;;;;5108864;27;20040;-75
2023/06/14 01:45:44;;;;;;;;;;;15.20;90.90;;;;;;5105787;27;21530;-76
2023/06/14 01:48:10;;;;;;;5.43;2.25;;;15.10;91.50;;;;;;5113366;27;19919;-76
2023/06/14 01:50:35;;;;;;;4.00;2.25;;;15.10;91.20;;;;;;5095387;28;20046;-76
2023/06/14 01:53:01;;;;;;;8.48;2.42;;;15.10;91.10;;;;;;5112769;27;20059;-76
2023/06/14 01:55:27;;;;;;;6.97;2.00;;;15.00;91.70;;;;;;5094002;28;20465;-75
2023/06/14 01:57:53;;;;;;;7.65;2.65;;;15.00;91.50;;;;;;5103784;28;20123;-75
2023/06/14 02:00:21;;;;;;;2.85;1.90;;;15.00;91.70;;;;;;5104843;28;20036;-75
2023/06/14 02:02:47;;;;;;;4.05;2.13;;;15.00;92.00;;;;;;5105118;28;20023;-75
2023/06/14 02:05:13;;;;;;;4.72;2.20;;;15.00;92.10;;;;;;5096723;28;20048;-76
2023/06/14 02:07:38;;;;;;;4.35;2.05;;;15.00;92.20;;;;;;5107246;27;20039;-75
2023/06/14 02:10:07;;;;;;;4.93;2.20;;;15.00;92.30;;;;;;5108091;28;20044;-75
2023/06/14 02:12:33;;;;;;;4.72;2.10;;;14.90;92.40;;;;;;5116655;27;20051;-76
2023/06/14 02:14:58;;;;;;;7.63;2.38;;;14.90;92.40;;;;;;5113262;27;20039;-74
2023/06/14 02:17:24;;;;;;;6.32;2.03;;;14.90;92.60;;;;;;5109744;28;20039;-74
2023/06/14 02:19:50;;;;;;;9.25;2.10;;;14.90;92.70;;;;;;5092987;28;20501;-74
2023/06/14 02:22:16;;;;;;;5.38;2.33;;;14.90;92.80;;;;;;5102725;28;20106;-75
2023/06/14 02:24:42;;;;;;;4.60;2.30;;;14.90;92.90;;;;;;5086669;28;20618;-75
2023/06/14 02:27:10;;;;;;;3.17;2.17;;;14.90;93.00;;;;;;5115003;28;20071;-75
2023/06/14 02:29:36;;;;;;;7.35;2.60;;;14.90;93.10;;;;;;5116178;28;20446;-74
2023/06/14 02:32:02;;;;;;;8.07;2.60;;;14.80;93.40;;;;;;5115866;28;20044;-75
2023/06/14 02:34:28;;;;;;;7.75;2.22;;;14.80;93.90;;;;;;5076199;28;20035;-75
2023/06/14 02:36:55;;;;;;;5.53;2.35;;;14.70;94.00;;;;;;5101349;28;20036;-74
2023/06/14 02:39:23;;;;;;;8.98;2.20;;;14.80;93.70;;;;;;5112976;28;20075;-74
2023/06/14 02:41:50;;;;;;;22.23;2.80;;;14.80;93.70;;;;;;5114204;28;20405;-76
2023/06/14 02:44:18;;;;;;;3.73;2.10;;;14.70;94.40;;;;;;5088647;28;20111;-75
2023/06/14 02:46:43;;;;;;;6.95;2.53;;;14.70;94.30;;;;;;5111779;28;20924;-76
2023/06/14 02:49:11;;;;;;;5.32;2.58;;;14.70;94.50;;;;;;5090111;28;20040;-75
2023/06/14 02:51:36;;;;;;;5.35;2.40;;;14.70;94.60;;;;;;5093993;28;20135;-76
2023/06/14 02:54:02;;;;;;;7.10;2.67;;;14.70;94.70;;;;;;5104235;28;20114;-75
2023/06/14 02:56:28;;;;;;;4.40;2.30;;;14.70;94.90;;;;;;5118608;28;20110;-74
2023/06/14 02:58:54;;;;;;;5.05;2.33;;;14.70;94.90;;;;;;5104370;28;20118;-76
2023/06/14 03:01:20;;;;;;;7.22;2.55;;;14.70;95.10;;;;;;5105129;28;20062;-76
2023/06/14 03:03:46;;;;;;;3.97;2.40;;;14.70;95.20;;;;;;5107713;28;20493;-75
2023/06/14 03:06:12;;;;;;;4.47;2.70;;;14.70;95.40;;;;;;5101283;28;20032;-76
2023/06/14 03:08:38;;;;;;;8.35;2.65;;;14.70;95.70;;;;;;5101225;28;20565;-75
2023/06/14 03:11:05;;;;;;;5.85;2.53;;;14.70;95.80;;;;;;5088609;28;20044;-75
2023/06/14 03:13:33;;;;;;;5.72;2.60;;;14.70;96.10;;;;;;5121103;28;20095;-74
2023/06/14 03:16:00;;;;;;;8.32;3.10;;;14.70;96.00;;;;;;5095888;28;20078;-75
2023/06/14 03:18:26;;;;;;;6.72;2.80;;;14.70;96.30;;;;;;5061185;28;20047;-75
2023/06/14 03:20:53;;;;;;;9.63;2.92;;;14.70;96.50;;;;;;5105159;28;20063;-74
2023/06/14 03:23:19;;;;;;;5.97;2.78;;;14.70;96.70;;;;;;5100607;28;20079;-74
2023/06/14 03:25:45;;;;;;;5.45;2.38;;;14.70;97.00;;;;;;5084737;28;20067;-74
2023/06/14 03:28:10;;;;;;;10.85;2.95;;;14.70;97.00;;;;;;5094154;28;20042;-74
2023/06/14 03:30:36;;;;;;;9.02;3.22;;;14.70;97.00;;;;;;5102629;28;20490;-74
2023/06/14 03:33:02;;;;;;;6.32;2.80;;;14.80;97.20;;;;;;5107321;28;20528;-74
2023/06/14 03:35:28;;;;;;;8.27;2.90;;;14.70;97.40;;;;;;5104715;28;20385;-75
2023/06/14 03:37:54;;;;;;;3.47;2.22;;;14.80;97.60;;;;;;5105073;28;20492;-75
2023/06/14 03:40:21;;;;;;;8.18;2.80;;;14.80;97.90;;;;;;5107708;27;20036;-74
2023/06/14 03:42:46;;;;;;;9.38;3.17;;;14.80;98.00;;;;;;5086382;28;20035;-74
2023/06/14 03:45:12;;;;;;;4.43;2.63;;;14.70;98.10;;;;;;5092246;28;20048;-74
2023/06/14 03:47:38;;;;;;;7.32;3.03;;;14.80;98.60;;;;;;5106644;28;20085;-75
2023/06/14 03:50:05;;;;;;;5.90;2.75;;;14.80;98.20;;;;;;5106630;28;20048;-74
2023/06/14 03:52:32;;;;;;;12.77;3.72;;;14.80;98.60;;;;;;5094090;28;20402;-75
2023/06/14 03:55:00;;;;;;;4.20;2.80;;;14.80;98.90;;;;;;5096461;28;20370;-75
2023/06/14 03:57:26;;;;;;;6.10;3.05;;;14.80;98.70;;;;;;5109876;28;20097;-75
2023/06/14 03:59:52;;;;;;;9.75;2.90;;;14.90;99.00;;;;;;5111792;28;20023;-74
2023/06/14 04:02:17;;;;;;;12.65;3.17;;;14.80;99.70;;;;;;5113289;27;20079;-74
2023/06/14 04:04:45;;;;;;;8.27;2.92;;;14.90;99.70;;;;;;5105897;28;20035;-75
2023/06/14 04:07:11;;;;;;;7.80;3.03;;;14.80;99.60;;;;;;5100690;28;20521;-74
2023/06/14 04:09:38;;;;;;;6.68;2.83;;;14.80;99.70;;;;;;5113776;27;20096;-75
2023/06/14 04:12:05;;;;;;;5.97;3.22;;;14.90;99.90;;;;;;5118984;27;20397;-75
2023/06/14 04:14:32;;;;;;;9.50;3.63;;;14.90;99.90;;;;;;5104393;28;20401;-74
2023/06/14 04:16:58;;;;;;;6.30;3.20;;;15.00;99.90;;;;;;5107178;28;20050;-75
2023/06/14 04:19:24;;;;;;;9.60;3.13;;;14.90;99.90;;;;;;5107818;28;20397;-74
2023/06/14 04:21:50;;;;;;;5.68;3.13;;;14.90;99.90;;;;;;5109841;28;20039;-75
2023/06/14 04:24:16;;;;;;;5.43;3.70;;;14.90;99.90;;;;;;5117246;28;20042;-74
2023/06/14 04:26:47;;;;;;;10.23;3.03;;;15.00;99.90;;;;;;5109984;27;20496;-74
2023/06/14 04:29:15;;;;;;;5.70;2.90;;;15.00;99.90;;;;;;5114903;27;20047;-77
2023/06/14 04:31:42;;;;;;;9.25;3.35;;;15.00;99.90;;;;;;5118123;28;20042;-74
2023/06/14 04:34:08;;;;;;;9.05;3.25;;;15.00;99.90;;;;;;5084093;28;20044;-75
2023/06/14 04:36:37;;;;;;;7.13;3.17;;;15.10;99.90;;;;;;5109013;28;20047;-74
2023/06/14 04:39:04;;;;;;;8.32;3.70;;;15.10;99.90;;;;;;5108332;27;20450;-75
2023/06/14 04:41:31;;;;;;;8.27;3.42;;;15.10;99.90;;;;;;5117685;27;23322;-75
2023/06/14 04:44:01;;;;;;;9.60;3.30;;;15.10;99.90;;;;;;5108965;28;20381;-74
2023/06/14 04:46:28;;;;;;;6.85;3.40;;;15.20;99.90;;;;;;5112904;27;20093;-75
2023/06/14 04:48:54;;;;;;;11.00;3.43;;;15.20;99.90;;;;;;5100396;27;20047;-76
2023/06/14 04:51:22;;;;;;;8.45;3.30;;;15.30;99.90;;;;;;5118674;27;20060;-75
2023/06/14 04:53:49;;;;;;;6.10;3.00;;;15.40;99.90;;;;;;5102005;27;20044;-75
2023/06/14 04:56:15;;;;;;;8.88;3.38;;;15.50;99.90;;;;;;5106620;27;20038;-75
2023/06/14 04:58:41;;;;;;;6.15;3.42;;;15.50;99.90;;;;;;5100602;28;20044;-75
2023/06/14 05:01:09;;;;;;;6.75;3.28;;;15.60;99.90;;;;;;5101813;28;20055;-75
2023/06/14 05:03:34;;;;;;;6.90;3.15;;;15.70;99.90;;;;;;5112590;27;20088;-75
2023/06/14 05:06:00;;;;;;;10.45;4.13;;;15.80;99.90;;;;;;5107476;28;20035;-76
2023/06/14 05:08:29;;;;;;;6.68;3.10;;;15.90;99.90;;;;;;5114643;28;20039;-75
2023/06/14 05:10:55;;;;;;;8.25;3.33;;;16.00;99.90;;;;;;5100470;27;20135;-76
2023/06/14 05:13:22;;;;;;;7.13;3.10;;;16.10;99.90;;;;;;5106181;28;20058;-77
2023/06/14 05:15:48;;;;;;;7.78;3.70;;;16.20;99.90;;;;;;5115687;27;20043;-77
2023/06/14 05:18:14;;;;;;;7.07;3.10;;;16.30;99.90;;;;;;5117362;27;20050;-74
2023/06/14 05:20:41;;;;;;;4.78;2.90;;;16.40;99.90;;;;;;5093504;28;20036;-76
2023/06/14 05:23:07;;;;;;;6.68;3.35;;;16.50;99.90;;;;;;5111251;28;20066;-76
2023/06/14 05:25:33;;;;;;;6.97;3.03;;;16.70;99.80;;;;;;5103073;28;20457;-74
2023/06/14 05:27:58;;;;;;;8.32;3.50;;;16.80;99.00;;;;;;5107080;27;20048;-74
2023/06/14 05:30:24;;;;;;;11.32;3.97;;;16.90;98.90;;;;;;5105408;27;20038;-76
2023/06/14 05:32:50;;;;;;;6.63;4.00;;;17.00;98.80;;;;;;5071449;28;20054;-75
2023/06/14 05:35:16;;;;;;;15.00;4.07;;;17.10;98.40;;;;;;5098270;27;20036;-74
2023/06/14 05:37:41;;;;;;;10.07;3.95;;;17.10;98.10;;;;;;5096603;27;20032;-74
2023/06/14 05:40:08;;;;;;;5.25;3.50;;;17.10;97.60;;;;;;5099149;27;20047;-75
2023/06/14 05:42:34;;;;;;;6.50;3.85;;;17.20;98.00;;;;;;5085097;28;20052;-74
2023/06/14 05:45:00;;;;;;;6.55;3.92;;;17.30;97.60;;;;;;5090690;28;20044;-73
2023/06/14 05:47:27;;;;;;;9.63;4.38;;;17.30;97.40;;;;;;5112851;28;20093;-75
2023/06/14 05:49:54;;;;;;;7.63;3.88;;;17.50;97.40;;;;;;5068196;28;20051;-78
2023/06/14 05:52:20;;;;;;;8.70;4.20;;;17.70;97.40;;;;;;5097181;27;20058;-74
2023/06/14 05:54:46;;;;;;;7.25;4.07;;;18.10;97.10;;;;;;5117328;27;20055;-76
2023/06/14 05:57:12;;;;;;;10.27;3.83;;;18.50;96.40;;;;;;5094211;28;20093;-74
2023/06/14 05:59:38;;;;;;;7.70;3.60;;;18.80;95.50;;;;;;5099990;28;20043;-75
2023/06/14 06:02:03;;;;;;;7.82;3.63;;;19.00;95.00;;;;;;5104922;28;20053;-74
2023/06/14 06:04:29;;;;;;;9.27;3.70;;;19.10;94.90;;;;;;5088777;28;20051;-75
2023/06/14 06:06:55;;;;;;;11.27;4.15;;;19.50;94.10;;;;;;5113830;28;20046;-75
2023/06/14 06:09:20;;;;;;;7.38;3.80;;;19.70;93.80;;;;;;5107199;27;20120;-74
2023/06/14 06:11:47;;;;;;;12.98;4.07;;;20.00;93.00;;;;;;5118587;28;20032;-74
2023/06/14 06:14:13;;;;;;;5.93;3.75;;;20.20;92.60;;;;;;5114150;28;20043;-73
2023/06/14 06:16:39;;;;;;;7.13;3.70;;;20.30;91.90;;;;;;5107304;28;20036;-74
2023/06/14 06:19:04;;;;;;;8.40;3.42;;;20.10;91.50;;;;;;5090758;28;20024;-72
2023/06/14 06:21:31;;;;;;;5.53;3.60;;;19.90;91.80;;;;;;5112583;28;20075;-74
2023/06/14 06:23:57;;;;;;;18.33;4.80;;;19.80;92.00;;;;;;5111887;27;20051;-73
2023/06/14 06:26:23;;;;;;;8.77;4.40;;;19.60;92.20;;;;;;5108674;28;20039;-75
2023/06/14 06:28:49;;;;;;;9.18;3.70;;;19.50;92.40;;;;;;5109654;28;20085;-75
2023/06/14 06:31:15;;;;;;;7.90;3.50;;;19.50;92.50;;;;;;5109356;28;20044;-74
2023/06/14 06:33:40;;;;;;;9.00;3.25;;;19.40;92.50;;;;;;5086909;28;20055;-74
2023/06/14 06:36:06;;;;;;;5.38;3.10;;;19.40;92.60;;;;;;5097897;28;20411;-75
2023/06/14 06:38:32;;;;;;;7.78;3.85;;;19.40;92.50;;;;;;5106567;28;20074;-73
2023/06/14 06:40:57;;;;;;;7.45;3.20;;;19.40;92.70;;;;;;5095068;28;20052;-74
2023/06/14 06:43:23;;;;;;;5.30;3.42;;;19.50;92.70;;;;;;5100427;28;20062;-74
2023/06/14 06:45:48;;;;;;;7.55;3.10;;;19.60;92.50;;;;;;5113027;28;20035;-74
2023/06/14 06:48:15;;;;;;;7.45;3.08;;;19.60;92.40;;;;;;5116393;28;20097;-75
2023/06/14 06:50:42;;;;;;;5.83;2.90;;;19.80;92.50;;;;;;5095358;28;20048;-74
2023/06/14 06:53:08;;;;;;;5.70;3.30;;;19.80;92.10;;;;;;5110127;28;20134;-74
2023/06/14 06:55:33;;;;;;;9.70;3.60;;;19.90;92.10;;;;;;5107912;28;20071;-73
2023/06/14 06:58:00;;;;;;;5.18;3.03;;;20.00;92.20;;;;;;5117064;28;20039;-75
2023/06/14 07:00:25;;;;;;;6.40;2.97;;;20.10;91.90;;;;;;5117843;28;20153;-74
2023/06/14 07:02:52;;;;;;;5.97;3.05;;;20.10;91.60;;;;;;5101631;28;20032;-74
2023/06/14 07:05:17;;;;;;;12.70;3.40;;;20.30;91.70;;;;;;5111673;28;20047;-75
2023/06/14 07:07:43;;;;;;;8.65;3.58;;;20.40;91.50;;;;;;5095446;28;20032;-75
2023/06/14 07:10:09;;;;;;;12.77;3.35;;;20.50;91.30;;;;;;5115532;28;20484;-75
2023/06/14 07:12:39;;;;;;;5.15;2.72;;;20.50;91.20;;;;;;5117842;28;20035;-74
2023/06/14 07:15:08;;;;;;;8.57;3.40;;;20.70;91.10;;;;;;5122632;28;20047;-75
2023/06/14 07:17:34;;;;;;;6.18;3.15;;;20.80;90.90;;;;;;5105024;28;20821;-76
2023/06/14 07:20:01;;;;;;;8.48;3.10;;;20.80;90.30;;;;;;5123440;28;20088;-76
2023/06/14 07:22:26;;;;;;;4.57;2.77;;;20.90;90.30;;;;;;5116785;28;20052;-75
2023/06/14 07:24:52;;;;;;;5.43;2.85;;;21.00;90.00;;;;;;5115897;28;20040;-75
2023/06/14 07:27:18;;;;;;;5.43;2.53;;;21.10;90.00;;;;;;5123150;27;20069;-75
2023/06/14 07:29:43;;;;;;;3.97;2.60;;;21.30;90.00;;;;;;5082673;28;20046;-75
2023/06/14 07:32:09;;;;;;;6.00;3.10;;;21.40;89.20;;;;;;5123349;28;20064;-75
2023/06/14 07:34:35;;;;;;;6.30;2.78;;;21.50;88.20;;;;;;5110841;27;20040;-74
2023/06/14 07:37:00;;;;;;;6.22;2.50;;;21.60;88.20;;;;;;5139351;27;20047;-74
2023/06/14 07:39:26;;;;;;;9.65;2.45;;;21.70;86.50;;;;;;5110427;28;20534;-73
2023/06/14 07:41:51;;;;;;;12.18;3.20;;;21.70;85.70;;;;;;5114519;28;20443;-74
2023/06/14 07:44:17;;;;;;;5.32;2.50;;;21.80;85.40;;;;;;5117452;27;20085;-74
2023/06/14 07:46:43;;;;;;;7.53;2.70;;;21.80;85.20;;;;;;5118627;28;20055;-74
2023/06/14 07:49:08;;;;;;;7.93;2.80;;;21.90;85.20;;;;;;5117671;28;20465;-75
2023/06/14 07:51:34;;;;;;;8.18;2.80;;;22.00;84.00;;;;;;5128049;27;20051;-75
2023/06/14 07:54:02;;;;;;;7.15;2.45;;;22.10;82.90;;;;;;5107536;27;20051;-74
2023/06/14 07:56:30;;;;;;;8.07;2.92;;;22.00;83.00;;;;;;5109640;28;20035;-75
2023/06/14 07:58:56;;;;;;;7.72;2.60;;;22.00;82.60;;;;;;5092693;28;20054;-75
2023/06/14 08:01:24;;;;;;;3.22;2.15;;;22.10;83.20;;;;;;5108463;28;20479;-75
2023/06/14 08:03:49;;;;;;;5.40;2.40;;;22.20;83.30;;;;;;5101323;28;20447;-74
2023/06/14 08:06:15;;;;;;;7.13;2.70;;;22.20;82.80;;;;;;5087162;28;20048;-72
2023/06/14 08:08:41;;;;;;;5.90;2.50;;;22.20;82.50;;;;;;5110722;27;20394;-74
2023/06/14 08:11:06;;;;;;;9.82;2.53;;;22.30;82.90;;;;;;5091155;28;20048;-74
2023/06/14 08:13:32;;;;;;;9.32;2.38;;;22.30;82.80;;;;;;5088689;28;20047;-73
2023/06/14 08:15:58;;;;;;;11.05;2.80;;;22.40;83.10;;;;;;5110130;27;20031;-74
2023/06/14 08:18:24;;;;;;;10.20;2.55;;;22.60;82.90;;;;;;5134350;27;20044;-72
2023/06/14 08:20:50;;;;;;;4.13;2.53;;;22.70;82.10;;;;;;5110394;28;20119;-74
2023/06/14 08:23:18;;;;;;;4.32;2.55;;;22.70;80.50;;;;;;5116278;27;20036;-74
2023/06/14 08:25:45;;;;;;;5.18;2.83;;;22.70;80.20;;;;;;5116975;28;20062;-74
2023/06/14 08:28:10;;;;;;;5.63;2.33;;;22.80;79.90;;;;;;5109110;28;20044;-74
2023/06/14 08:30:36;;;;;;;8.32;2.60;;;22.80;80.30;;;;;;5110937;28;20388;-73
2023/06/14 08:33:02;;;;;;;8.15;2.75;;;22.90;80.60;;;;;;5111235;28;20506;-75
2023/06/14 08:35:27;;;;;;;6.07;2.30;;;22.90;80.00;;;;;;5097433;28;20054;-72
2023/06/14 08:37:53;;;;;;;6.43;2.20;;;23.00;79.90;;;;;;5107337;28;20040;-73
2023/06/14 08:40:23;;;;;;;5.15;2.45;;;23.10;79.60;;;;;;5114571;28;20069;-74
2023/06/14 08:42:53;;;;;;;8.73;2.22;;;23.20;79.50;;;;;;5109517;28;20082;-74
2023/06/14 08:45:21;;;;;;;5.70;2.17;;;23.40;78.70;;;;;;5112519;28;20096;-74
2023/06/14 08:47:51;;;;;;;5.45;2.22;;;23.40;77.60;;;;;;5089004;28;20044;-74
2023/06/14 08:50:31;;;;;;;6.05;2.70;;;23.40;76.60;;;;;;5097228;28;20040;-74
2023/06/14 08:53:02;;;;;;;4.45;2.40;;;23.40;76.30;;;;;;5097163;28;20603;-73
2023/06/14 08:55:29;;;;;;;7.57;2.72;;;23.60;76.70;;;;;;5101819;28;20390;-74
2023/06/14 08:57:58;;;;;;;5.35;2.40;;;23.70;77.00;;;;;;5097341;28;20086;-73
2023/06/14 09:00:26;;;;;;;7.20;2.60;;;23.70;76.40;;;;;;5097316;28;20048;-74
2023/06/14 09:02:57;;;;;;;4.63;2.50;;;23.80;76.60;;;;;;5117555;28;20118;-74
2023/06/14 09:05:27;;;;;;;3.90;2.38;;;23.80;76.70;;;;;;5098457;28;20157;-74
2023/06/14 09:07:56;;;;;;;5.72;2.53;;;23.80;76.80;;;;;;5094208;28;20040;-74
2023/06/14 09:10:22;;;;;;;4.47;2.22;;;23.80;76.70;;;;;;5105457;28;20043;-74
2023/06/14 09:12:48;;;;;;;10.40;2.72;;;23.80;76.80;;;;;;5077569;28;20443;-72
2023/06/14 09:15:14;;;;;;;7.00;2.47;;;23.70;76.50;;;;;;5077646;28;20109;-75
2023/06/14 09:17:40;;;;;;;9.85;3.17;;;23.70;76.30;;;;;;5116221;28;20051;-74
2023/06/14 09:20:10;;;;;;;15.15;2.88;;;23.70;76.30;;;;;;5096628;28;20381;-74
2023/06/14 09:22:38;;;;;;;6.20;2.60;;;23.80;76.50;;;;;;5115081;28;20055;-73
2023/06/14 09:25:04;;;;;;;8.60;2.88;;;23.80;76.40;;;;;;5073515;28;20127;-75
2023/06/14 09:27:30;;;;;;;7.13;2.50;;;23.90;76.30;;;;;;5095552;28;20036;-74
2023/06/14 09:29:56;;;;;;;4.88;2.60;;;24.00;76.10;;;;;;5116989;27;20062;-73
2023/06/14 09:32:22;;;;;;;6.10;2.63;;;24.10;76.10;;;;;;5100411;28;20462;-74
2023/06/14 09:34:48;;;;;;;8.48;2.85;;;24.20;74.70;;;;;;5117665;27;20043;-74
2023/06/14 09:37:28;;;;;;;8.02;2.80;;;24.30;75.60;;;;;;5094264;28;20044;-74
2023/06/14 09:39:53;;;;;;;4.85;2.30;;;24.40;75.00;;;;;;5079755;28;20071;-73
2023/06/14 09:42:25;;;;;;;10.65;2.70;;;24.40;74.60;;;;;;5117765;27;20105;-74
2023/06/14 09:44:54;;;;;;;6.60;2.60;;;24.50;75.20;;;;;;5112907;28;20111;-76
2023/06/14 09:47:21;;;;;;;7.82;2.50;;;24.60;74.40;;;;;;5107997;28;20035;-74
2023/06/14 09:49:47;;;;;;;5.10;2.13;;;24.50;73.50;;;;;;5088871;28;20059;-75
2023/06/14 09:52:18;;;;;;;4.38;2.13;;;24.50;74.10;;;;;;5078329;28;20319;-75
2023/06/14 09:54:46;;;;;;;3.95;2.38;;;24.60;74.10;;;;;;5062593;28;20052;-77
2023/06/14 09:57:14;;;;;;;5.97;2.30;;;24.60;73.80;;;;;;5059925;28;20405;-74
2023/06/14 09:59:42;;;;;;;7.32;2.53;;;24.70;73.40;;;;;;5069535;28;20040;-73
2023/06/14 10:02:28;;;;;;;7.07;2.20;;;24.70;73.10;;;;;;5066078;28;20102;-74
2023/06/14 10:05:06;;;;;;;8.23;2.40;;;24.70;72.80;;;;;;5060206;28;20037;-74
2023/06/14 10:07:43;;;;;;;6.68;2.50;;;24.80;72.60;;;;;;5063485;28;20039;-74
2023/06/14 10:10:09;;;;;;;4.93;2.15;;;24.80;72.10;;;;;;5066591;28;20083;-73
2023/06/14 10:12:35;;;;;;;11.57;2.33;;;24.80;72.50;;;;;;5072733;28;20037;-75
2023/06/14 10:15:02;;;;;;;8.10;2.60;;;24.80;72.10;;;;;;5059856;28;20082;-72
2023/06/14 10:17:52;;;;;;;22.48;3.67;;;24.80;71.70;;;;;;5091440;28;20060;-75
2023/06/14 10:20:37;;;;;;;6.80;2.53;;;24.70;70.90;;;;;;5078392;28;20044;-76
2023/06/14 10:23:10;;;;;;;8.52;2.67;;;24.80;71.30;;;;;;5078589;28;20142;-76
2023/06/14 10:25:35;;;;;;;6.75;2.63;;;24.90;71.10;;;;;;5074544;28;20068;-76
2023/06/14 10:28:18;;;;;;;3.28;2.20;;;24.90;70.80;;;;;;5085578;28;20477;-72
2023/06/14 10:31:09;;;;;;;5.22;2.10;;;25.00;71.40;;;;;;5063318;28;20051;-74
2023/06/14 10:33:57;;;;;;;3.80;2.10;;;25.20;70.90;;;;;;5058200;28;20044;-74
2023/06/14 10:36:22;;;;;;;4.55;2.30;;;25.40;70.00;;;;;;5062513;28;20037;-74
2023/06/14 10:39:04;;;;;;;3.95;2.13;;;25.40;70.50;;;;;;5073123;28;20043;-73
2023/06/14 10:41:31;;;;;;;5.63;2.40;;;25.60;70.50;;;;;;5070271;28;20041;-74
2023/06/14 10:44:22;;;;;;;4.43;2.57;;;25.60;70.40;;;;;;5071284;28;20536;-74
2023/06/14 10:46:59;;;;;;;6.72;2.35;;;25.80;70.50;;;;;;5058596;28;20626;-76
2023/06/14 10:49:41;;;;;;;10.10;2.92;;;26.00;70.50;;;;;;5069528;28;20347;-75
2023/06/14 10:52:11;;;;;;;8.60;2.47;;;26.20;70.00;;;;;;5105634;27;20052;-74
2023/06/14 10:54:38;;;;;;;4.18;2.15;;;26.40;70.10;;;;;;5110584;27;20036;-76
2023/06/14 10:57:07;;;;;;;7.10;2.30;;;26.70;69.20;;;;;;5128224;27;20537;-74
2023/06/14 10:59:33;;;;;;;8.75;2.40;;;26.80;67.70;;;;;;5095587;27;20042;-74
2023/06/14 11:02:35;;;;;;;3.90;2.20;;;26.70;67.50;;;;;;5115285;27;20114;-76
2023/06/14 11:05:09;;;;;;;5.05;2.50;;;26.70;67.70;;;;;;5080825;28;20044;-74
2023/06/14 11:07:38;;;;;;;11.68;2.60;;;26.80;68.70;;;;;;5102229;28;20048;-74
2023/06/14 11:10:36;;;;;;;3.67;2.28;;;27.20;68.70;;;;;;5079524;27;20047;-75
2023/06/14 11:13:02;;;;;;;4.93;2.25;;;27.30;67.30;;;;;;5091773;27;20043;-75
2023/06/14 11:15:30;;;;;;;15.73;2.70;;;27.20;67.60;;;;;;5110978;27;20133;-74
2023/06/14 11:17:57;;;;;;;6.55;2.22;;;27.10;67.00;;;;;;5095692;28;20860;-74
2023/06/14 11:20:25;;;;;;;10.38;2.28;;;27.10;66.60;;;;;;5116564;28;20109;-74
2023/06/14 11:22:52;;;;;;;3.75;1.95;;;27.00;66.50;;;;;;5122380;27;20040;-73
2023/06/14 11:25:18;;;;;;;4.43;2.10;;;26.90;64.80;;;;;;5115835;27;20118;-74
2023/06/14 11:27:44;;;;;;;4.40;2.05;;;26.70;66.10;;;;;;5100677;27;20119;-73
2023/06/14 11:30:11;;;;;;;4.15;2.30;;;26.90;66.40;;;;;;5118335;27;20035;-75
2023/06/14 11:32:40;;;;;;;6.60;2.05;;;27.10;66.50;;;;;;5109253;27;20043;-75
2023/06/14 11:35:08;;;;;;;7.45;2.25;;;27.40;66.10;;;;;;5096479;28;20036;-74
2023/06/14 11:37:36;;;;;;;7.57;1.90;;;27.50;65.20;;;;;;5090385;28;20133;-75
2023/06/14 11:40:07;;;;;;;5.47;2.20;;;27.30;64.80;;;;;;5097349;28;20543;-73
2023/06/14 11:42:33;;;;;;;55.40;5.18;;;27.50;66.10;;;;;;5107514;27;20118;-73
2023/06/14 11:44:59;;;;;;;5.85;1.90;;;27.60;64.40;;;;;;5107372;27;20134;-75
2023/06/14 11:47:31;;;;;;;4.35;1.63;;;27.40;64.40;;;;;;5108697;27;20489;-74
2023/06/14 11:49:58;;;;;;;3.70;1.70;;;27.50;64.90;;;;;;5111201;27;20048;-76
2023/06/14 11:52:24;;;;;;;2.92;1.88;;;27.60;63.90;;;;;;5109802;27;20060;-75
2023/06/14 11:54:50;;;;;;;8.43;2.53;;;27.60;63.30;;;;;;5101600;27;20073;-75
2023/06/14 11:57:18;;;;;;;4.65;1.75;;;27.90;63.70;;;;;;5105418;28;20508;-75
2023/06/14 11:59:44;;;;;;;5.13;2.13;;;28.10;62.80;;;;;;5102481;28;20044;-74
2023/06/14 12:02:17;;;;;;;10.57;1.87;;;28.00;63.10;;;;;;5092327;28;20047;-75
2023/06/14 12:04:52;;;;;;;4.07;2.28;;;28.30;63.60;;;;;;5091028;28;20044;-76
2023/06/14 12:07:21;;;;;;;6.72;1.85;;;28.30;62.60;;;;;;5121861;27;20116;-74
2023/06/14 12:09:53;;;;;;;5.07;2.08;;;28.40;62.70;;;;;;5115015;28;20048;-75
2023/06/14 12:12:21;;;;;;;4.95;1.90;;;28.40;62.40;;;;;;5106114;28;20051;-74
2023/06/14 12:14:47;;;;;;;6.68;2.35;;;28.40;61.60;;;;;;5102638;28;20044;-75
2023/06/14 12:17:12;;;;;;;3.78;1.85;;;28.00;62.10;;;;;;5115738;27;20047;-75
2023/06/14 12:19:49;;;;;;;4.10;2.00;;;28.00;61.80;;;;;;5108481;28;20118;-75
2023/06/14 12:22:16;;;;;;;5.55;1.80;;;27.80;61.80;;;;;;5106804;28;20039;-75
2023/06/14 12:24:46;;;;;;;3.40;1.85;;;27.80;62.40;;;;;;5113037;28;20171;-76
2023/06/14 12:27:15;;;;;;;13.55;1.80;;;27.90;62.20;;;;;;5084896;28;20397;-74
2023/06/14 12:29:43;;;;;;;2.92;1.70;;;27.80;61.80;;;;;;5112800;28;20087;-75
2023/06/14 12:32:09;;;;;;;2.10;1.40;;;27.70;61.60;;;;;;5097690;28;20054;-75
2023/06/14 12:34:35;;;;;;;4.18;1.90;;;27.40;62.40;;;;;;5096602;28;20040;-75
2023/06/14 12:37:03;;;;;;;4.07;1.67;;;27.10;62.70;;;;;;5102827;28;20035;-75
2023/06/14 12:39:31;;;;;;;5.60;1.88;;;27.10;63.70;;;;;;5094050;28;20044;-74
2023/06/14 12:41:57;;;;;;;6.45;1.85;;;26.70;63.10;;;;;;5108084;28;20053;-75
2023/06/14 12:44:23;;;;;;;3.53;1.80;;;26.40;64.00;;;;;;5084198;28;20035;-75
2023/06/14 12:46:51;;;;;;;5.53;1.80;;;26.20;64.40;;;;;;5107338;28;20043;-75
2023/06/14 12:49:16;;;;;;;3.25;1.80;;;26.50;65.50;;;;;;5105920;28;20044;-75